Time;durP1;ratioP1;P1;durP2;ratioP2;P2;SDS_P1;SDS_P2;PMS_P1;PMS_P2;Temp;Humidity;BMP_temperature;BMP_pressure;BME280_temperature;BME280_humidity;BME280_pressure;Samples;Min_cycle;Max_cycle;Signal;HPM_P1;HPM_P2
2023/06/04 00:01:36;;;;;;;;;;;;;;;15.48;61.95;96418.13;5108042;28;19953;-71
2023/06/04 00:04:02;;;;;;;;;;;;;;;15.44;61.71;96412.53;5108393;28;19956;-72
2023/06/04 00:06:27;;;;;;;;;;;;;;;15.43;61.88;96416.19;5107791;28;19963;-72
2023/06/04 00:08:53;;;;;;;;;;;;;;;15.42;61.92;96417.25;5107919;28;19961;-78
2023/06/04 00:11:19;;;;;;;;;;;;;;;15.38;62.09;96419.59;5107768;28;19973;-78
2023/06/04 00:13:45;;;;;;;;;;;;;;;15.35;62.57;96421.94;5108054;28;20193;-78
2023/06/04 00:16:11;;;;;;;;;;;;;;;15.30;62.13;96414.75;5107815;28;19950;-77
2023/06/04 00:18:37;;;;;;;;;;;;;;;15.22;61.37;96410.72;5107809;28;19951;-78
2023/06/04 00:21:03;;;;;;;;;;;;;;;15.17;61.68;96413.28;5107851;28;19958;-78
2023/06/04 00:23:29;;;;;;;;;;;;;;;15.13;63.82;96409.56;5107827;28;19950;-78
2023/06/04 00:25:54;;;;;;;;;;;;;;;15.11;64.09;96406.34;5107832;28;19957;-71
2023/06/04 00:28:21;;;;;;;;;;;;;;;15.08;65.04;96409.50;5107981;28;20113;-71
2023/06/04 00:30:47;;;;;;;;;;;;;;;15.06;63.42;96416.88;5106986;28;19989;-72
2023/06/04 00:33:13;;;;;;;;;;;;;;;15.04;64.59;96410.25;5107501;28;20246;-71
2023/06/04 00:35:39;;;;;;;;;;;;;;;15.00;64.33;96416.00;5107174;28;19959;-71
2023/06/04 00:38:05;;;;;;;;;;;;;;;14.99;64.78;96405.69;5106759;28;19992;-72
2023/06/04 00:40:30;;;;;;;;;;;;;;;14.96;63.68;96407.00;5107571;28;19951;-71
2023/06/04 00:42:57;;;;;;;;;;;;;;;14.93;63.95;96409.31;5107206;28;20282;-71
2023/06/04 00:45:25;;;;;;;;;;;;;;;14.89;64.84;96416.94;5107363;28;19960;-73
2023/06/04 00:47:51;;;;;;;;;;;;;;;14.87;64.22;96418.25;5107286;28;19958;-72
2023/06/04 00:50:18;;;;;;;;;;;;;;;14.85;64.44;96425.63;5107296;28;19951;-72
2023/06/04 00:52:44;;;;;;;;;;;;;;;14.84;64.49;96431.91;5106632;28;19955;-72
2023/06/04 00:55:10;;;;;;;;;;;;;;;14.85;64.63;96430.91;5107157;28;19958;-72
2023/06/04 00:57:37;;;;;;;;;;;;;;;14.87;65.42;96432.25;5107105;28;20269;-72
2023/06/04 01:00:05;;;;;;;;;;;;;;;14.85;64.69;96429.03;5107014;28;20245;-73
2023/06/04 01:02:32;;;;;;;;;;;;;;;14.81;64.99;96426.09;5106676;28;20245;-72
2023/06/04 01:05:01;;;;;;;;;;;;;;;14.77;64.94;96427.63;5106755;28;20137;-71
2023/06/04 01:07:30;;;;;;;;;;;;;;;14.74;65.56;96427.28;5106709;28;19961;-72
2023/06/04 01:09:57;;;;;;;;;;;;;;;14.70;64.95;96420.91;5106670;28;19959;-71
2023/06/04 01:12:23;;;;;;;;;;;;;;;14.65;65.26;96423.50;5106860;28;19971;-73
2023/06/04 01:14:49;;;;;;;;;;;;;;;14.60;65.75;96424.22;5106750;28;20020;-71
2023/06/04 01:17:19;;;;;;;;;;;;;;;14.57;66.54;96427.34;5106694;28;20127;-71
2023/06/04 01:19:51;;;;;;;;;;;;;;;14.54;65.73;96423.31;5106804;28;20149;-79
2023/06/04 01:22:30;;;;;;;;;;;;;;;14.49;66.36;96431.19;5106314;28;19942;-81
2023/06/04 01:24:59;;;;;;;;;;;;;;;14.45;65.82;96430.06;5106506;28;19964;-80
2023/06/04 01:27:25;;;;;;;;;;;;;;;14.41;66.47;96421.03;5106301;28;19955;-81
2023/06/04 01:29:51;;;;;;;;;;;;;;;14.39;66.49;96423.13;5106353;28;19956;-81
2023/06/04 01:32:17;;;;;;;;;;;;;;;14.38;66.72;96432.06;5106126;28;19969;-81
2023/06/04 01:34:43;;;;;;;;;;;;;;;14.35;66.23;96414.88;5106265;28;19950;-81
2023/06/04 01:37:11;;;;;;;;;;;;;;;14.32;66.58;96423.28;5106474;28;19959;-81
2023/06/04 01:39:37;;;;;;;;;;;;;;;14.29;67.04;96423.75;5106267;28;19954;-76
2023/06/04 01:42:03;;;;;;;;;;;;;;;14.25;66.31;96419.22;5088150;28;19960;-72
2023/06/04 01:44:28;;;;;;;;;;;;;;;14.23;67.13;96426.56;5088031;28;19992;-72
2023/06/04 01:46:54;;;;;;;;;;;;;;;14.19;67.23;96424.44;5106157;28;19960;-72
2023/06/04 01:49:20;;;;;;;;;;;;;;;14.17;67.32;96423.06;5105586;28;19944;-71
2023/06/04 01:51:46;;;;;;;;;;;;;;;14.15;67.58;96425.13;5105865;28;19973;-71
2023/06/04 01:54:12;;;;;;;;;;;;;;;14.12;68.15;96426.41;5106115;28;19948;-71
2023/06/04 01:56:38;;;;;;;;;;;;;;;14.11;66.18;96413.47;5106039;28;19959;-69
2023/06/04 01:59:04;;;;;;;;;;;;;;;14.07;67.63;96422.91;5105768;28;20123;-72
2023/06/04 02:01:30;;;;;;;;;;;;;;;14.05;66.40;96419.69;5105789;28;19953;-72
2023/06/04 02:03:55;;;;;;;;;;;;;;;14.02;67.68;96431.53;5106003;28;19952;-72
2023/06/04 02:06:21;;;;;;;;;;;;;;;13.99;68.40;96427.53;5087511;28;19961;-72
2023/06/04 02:08:47;;;;;;;;;;;;;;;13.97;66.95;96418.28;5105706;28;19960;-72
2023/06/04 02:11:13;;;;;;;;;;;;;;;13.93;68.62;96427.72;5105665;28;20244;-72
2023/06/04 02:13:39;;;;;;;;;;;;;;;13.91;67.46;96424.50;5105752;28;19956;-72
2023/06/04 02:16:05;;;;;;;;;;;;;;;13.87;68.01;96426.81;5105775;28;20281;-73
2023/06/04 02:18:31;;;;;;;;;;;;;;;13.84;69.01;96426.47;5087539;28;19976;-72
2023/06/04 02:20:56;;;;;;;;;;;;;;;13.80;68.20;96426.19;5105623;28;19983;-72
2023/06/04 02:23:22;;;;;;;;;;;;;;;13.79;69.82;96433.28;5105192;28;19952;-72
2023/06/04 02:25:49;;;;;;;;;;;;;;;13.77;68.85;96432.75;5105103;28;19961;-72
2023/06/04 02:28:15;;;;;;;;;;;;;;;13.77;68.56;96426.66;5105117;28;19960;-72
2023/06/04 02:30:41;;;;;;;;;;;;;;;13.75;69.73;96428.72;5105086;28;19976;-72
2023/06/04 02:33:09;;;;;;;;;;;;;;;13.73;67.92;96428.97;5105111;28;19963;-75
2023/06/04 02:35:35;;;;;;;;;;;;;;;13.72;69.33;96431.84;5105117;28;20215;-69
2023/06/04 02:38:01;;;;;;;;;;;;;;;13.70;69.25;96429.44;5105256;28;19958;-72
2023/06/04 02:40:27;;;;;;;;;;;;;;;13.69;69.53;96433.13;5105141;28;20009;-72
2023/06/04 02:42:54;;;;;;;;;;;;;;;13.68;69.18;96425.44;5105235;28;19950;-72
2023/06/04 02:45:20;;;;;;;;;;;;;;;13.66;68.63;96420.41;5105217;28;19958;-72
2023/06/04 02:47:46;;;;;;;;;;;;;;;13.62;69.42;96432.44;5104605;28;20006;-72
2023/06/04 02:50:13;;;;;;;;;;;;;;;13.60;69.04;96429.25;5105168;28;19962;-72
2023/06/04 02:52:39;;;;;;;;;;;;;;;13.58;69.32;96429.50;5104692;28;20144;-76
2023/06/04 02:55:06;;;;;;;;;;;;;;;13.57;69.26;96429.75;5104704;28;19959;-72
2023/06/04 02:57:32;;;;;;;;;;;;;;;13.53;68.39;96432.03;5104631;28;19952;-72
2023/06/04 03:00:07;;;;;;;;;;;;;;;13.51;69.12;96434.13;5105139;28;19960;-72
2023/06/04 03:02:33;;;;;;;;;;;;;;;13.50;69.23;96434.34;5104935;28;20133;-72
2023/06/04 03:04:59;;;;;;;;;;;;;;;13.48;69.80;96439.06;5104955;28;19957;-71
2023/06/04 03:07:26;;;;;;;;;;;;;;;13.47;69.65;96448.78;5104819;28;20316;-73
2023/06/04 03:09:52;;;;;;;;;;;;;;;13.46;69.81;96444.56;5104412;28;19955;-73
2023/06/04 03:12:18;;;;;;;;;;;;;;;13.46;68.86;96447.22;5104956;28;19967;-81
2023/06/04 03:14:43;;;;;;;;;;;;;;;13.45;69.61;96445.59;5104696;28;19960;-71
2023/06/04 03:17:12;;;;;;;;;;;;;;;13.44;69.11;96453.72;5104692;28;19976;-72
2023/06/04 03:19:40;;;;;;;;;;;;;;;13.45;69.22;96457.97;5104501;28;20261;-72
2023/06/04 03:22:06;;;;;;;;;;;;;;;13.44;69.29;96454.53;5104375;28;19960;-72
2023/06/04 03:24:36;;;;;;;;;;;;;;;13.45;69.01;96458.78;5104448;28;19956;-72
2023/06/04 03:27:03;;;;;;;;;;;;;;;13.47;68.98;96454.06;5104421;28;19957;-72
2023/06/04 03:29:29;;;;;;;;;;;;;;;13.47;68.92;96464.59;5104848;28;20146;-70
2023/06/04 03:31:54;;;;;;;;;;;;;;;13.49;68.73;96459.09;5104648;28;19966;-76
2023/06/04 03:34:24;;;;;;;;;;;;;;;13.49;68.53;96467.81;5104507;28;19956;-76
2023/06/04 03:36:54;;;;;;;;;;;;;;;13.49;69.21;96467.81;5104589;28;20139;-76
2023/06/04 03:39:19;;;;;;;;;;;;;;;13.50;68.54;96468.59;5104133;28;19947;-76
2023/06/04 03:41:46;;;;;;;;;;;;;;;13.48;68.42;96466.22;5104495;28;19996;-76
2023/06/04 03:44:17;;;;;;;;;;;;;;;13.49;69.26;96472.28;5104586;28;20229;-76
2023/06/04 03:46:44;;;;;;;;;;;;;;;13.46;69.32;96478.81;5104045;28;20139;-72
2023/06/04 03:49:10;;;;;;;;;;;;;;;13.45;68.97;96477.22;5104179;28;19955;-72
2023/06/04 03:51:37;;;;;;;;;;;;;;;13.44;68.53;96475.63;5104146;28;19959;-82
2023/06/04 03:54:03;;;;;;;;;;;;;;;13.42;68.76;96480.31;5104188;28;20237;-81
2023/06/04 03:56:29;;;;;;;;;;;;;;;13.40;68.34;96474.50;5104234;28;19961;-82
2023/06/04 03:58:55;;;;;;;;;;;;;;;13.38;68.68;96480.00;5104557;28;19956;-81
2023/06/04 04:01:21;;;;;;;;;;;;;;;13.38;68.40;96480.00;5104361;28;19958;-81
2023/06/04 04:03:49;;;;;;;;;;;;;;;13.39;68.51;96480.78;5104436;28;19993;-81
2023/06/04 04:06:15;;;;;;;;;;;;;;;13.38;68.53;96477.34;5104420;28;19952;-72
2023/06/04 04:08:42;;;;;;;;;;;;;;;13.39;68.59;96478.16;5104245;28;19955;-81
2023/06/04 04:11:08;;;;;;;;;;;;;;;13.40;68.30;96474.50;5105570;28;19953;-82
2023/06/04 04:13:34;;;;;;;;;;;;;;;13.40;68.57;96477.13;5107448;28;19955;-82
2023/06/04 04:16:00;;;;;;;;;;;;;;;13.41;67.97;96478.72;5108419;28;19950;-81
2023/06/04 04:18:26;;;;;;;;;;;;;;;13.42;68.45;96475.06;5113002;28;19977;-82
2023/06/04 04:20:52;;;;;;;;;;;;;;;13.44;68.52;96475.63;5113740;28;20281;-81
2023/06/04 04:23:17;;;;;;;;;;;;;;;13.47;68.64;96475.13;5110885;28;20032;-72
2023/06/04 04:25:48;;;;;;;;;;;;;;;13.49;68.87;96474.91;5107819;28;19997;-78
2023/06/04 04:28:14;;;;;;;;;;;;;;;13.49;68.47;96477.53;5108008;28;19971;-81
2023/06/04 04:30:40;;;;;;;;;;;;;;;13.52;68.53;96488.44;5107679;28;20216;-81
2023/06/04 04:33:06;;;;;;;;;;;;;;;13.54;68.39;96490.81;5107749;28;19970;-80
2023/06/04 04:35:32;;;;;;;;;;;;;;;13.58;69.01;96490.09;5107730;28;19954;-81
2023/06/04 04:37:58;;;;;;;;;;;;;;;13.57;68.11;96503.53;5107609;28;19956;-80
2023/06/04 04:40:25;;;;;;;;;;;;;;;13.59;68.32;96493.56;5107427;28;19947;-80
2023/06/04 04:42:50;;;;;;;;;;;;;;;13.66;67.71;96498.66;5107364;28;19952;-73
2023/06/04 04:45:17;;;;;;;;;;;;;;;13.68;67.16;96493.97;5106937;28;19958;-72
2023/06/04 04:47:43;;;;;;;;;;;;;;;13.77;67.89;96489.91;5107372;28;19959;-73
2023/06/04 04:50:09;;;;;;;;;;;;;;;13.89;67.81;96484.56;5106996;28;19954;-73
2023/06/04 04:52:35;;;;;;;;;;;;;;;13.99;66.85;96495.31;5106900;28;20269;-72
2023/06/04 04:55:01;;;;;;;;;;;;;;;14.05;66.62;96494.34;5107017;28;19962;-72
2023/06/04 04:57:26;;;;;;;;;;;;;;;14.13;66.51;96495.78;5107241;28;20018;-74
2023/06/04 04:59:52;;;;;;;;;;;;;;;14.23;65.86;96488.03;5107096;28;20100;-80
2023/06/04 05:02:18;;;;;;;;;;;;;;;14.37;65.62;96491.94;5107119;28;19955;-73
2023/06/04 05:04:44;;;;;;;;;;;;;;;14.52;65.91;96493.22;5107027;28;19947;-70
2023/06/04 05:07:10;;;;;;;;;;;;;;;14.70;65.21;96495.63;5107047;28;19956;-71
2023/06/04 05:09:36;;;;;;;;;;;;;;;14.88;65.62;96499.84;5106472;28;19942;-70
2023/06/04 05:12:02;;;;;;;;;;;;;;;15.07;65.51;96505.63;5088871;28;19970;-70
2023/06/04 05:14:28;;;;;;;;;;;;;;;15.27;64.74;96505.09;5106625;28;19955;-70
2023/06/04 05:16:57;;;;;;;;;;;;;;;15.50;63.82;96508.53;5106822;28;20159;-70
2023/06/04 05:19:24;;;;;;;;;;;;;;;15.70;62.69;96502.66;5106832;28;19951;-77
2023/06/04 05:21:50;;;;;;;;;;;;;;;15.89;62.48;96509.22;5106649;28;19957;-72
2023/06/04 05:24:16;;;;;;;;;;;;;;;16.07;62.15;96507.28;5105212;28;19952;-72
2023/06/04 05:26:42;;;;;;;;;;;;;;;16.27;61.50;96501.34;5088364;28;19952;-72
2023/06/04 05:29:08;;;;;;;;;;;;;;;16.44;61.12;96497.53;5106431;28;19955;-72
2023/06/04 05:31:34;;;;;;;;;;;;;;;16.61;61.02;96496.59;5106434;28;19975;-72
2023/06/04 05:34:01;;;;;;;;;;;;;;;16.75;60.05;96495.06;5106770;28;19948;-72
2023/06/04 05:36:27;;;;;;;;;;;;;;;16.88;58.82;96495.69;5105828;28;19959;-74
2023/06/04 05:38:56;;;;;;;;;;;;;;;16.98;58.59;96498.41;5088545;28;20149;-76
2023/06/04 05:41:23;;;;;;;;;;;;;;;17.03;58.31;96493.94;5106417;28;19954;-72
2023/06/04 05:43:49;;;;;;;;;;;;;;;17.12;57.61;96488.94;5106343;28;20124;-72
2023/06/04 05:46:15;;;;;;;;;;;;;;;17.27;58.14;96490.84;5106201;28;20130;-73
2023/06/04 05:48:41;;;;;;;;;;;;;;;17.39;57.04;96487.97;5105891;28;19978;-73
2023/06/04 05:51:07;;;;;;;;;;;;;;;17.52;57.09;96486.69;5105806;28;20029;-73
2023/06/04 05:53:33;;;;;;;;;;;;;;;17.69;56.36;96495.22;5105941;28;19957;-73
2023/06/04 05:55:59;;;;;;;;;;;;;;;17.81;55.71;96492.34;5105927;28;19958;-82
2023/06/04 05:58:25;;;;;;;;;;;;;;;17.97;55.30;96488.66;5119020;23;19954;-71
2023/06/04 06:00:51;;;;;;;;;;;;;;;18.15;56.03;96492.66;5104995;28;19971;-71
2023/06/04 06:03:17;;;;;;;;;;;;;;;18.34;55.26;96489.47;5105432;28;19937;-71
2023/06/04 06:05:43;;;;;;;;;;;;;;;18.56;55.77;96497.97;5106176;28;19961;-71
2023/06/04 06:08:09;;;;;;;;;;;;;;;18.71;53.86;96491.00;5105444;28;19956;-71
2023/06/04 06:10:35;;;;;;;;;;;;;;;18.84;54.42;96493.97;5105802;28;19955;-71
2023/06/04 06:13:01;;;;;;;;;;;;;;;18.99;53.80;96492.31;5105363;28;19966;-71
2023/06/04 06:15:27;;;;;;;;;;;;;;;19.06;53.79;96492.81;5105479;28;19956;-72
2023/06/04 06:17:52;;;;;;;;;;;;;;;19.20;52.43;96493.06;5105481;28;20021;-71
2023/06/04 06:20:18;;;;;;;;;;;;;;;19.32;52.94;96506.03;5105447;28;19963;-71
2023/06/04 06:22:44;;;;;;;;;;;;;;;19.39;51.82;96510.00;5105443;28;19948;-71
2023/06/04 06:25:12;;;;;;;;;;;;;;;19.39;52.56;96510.00;5105059;28;20134;-71
2023/06/04 06:27:42;;;;;;;;;;;;;;;19.41;52.47;96507.84;5105469;28;19955;-71
2023/06/04 06:30:08;;;;;;;;;;;;;;;19.44;52.90;96512.66;5105479;28;19980;-72
2023/06/04 06:32:34;;;;;;;;;;;;;;;19.41;52.26;96512.38;5104954;28;19956;-67
2023/06/04 06:35:00;;;;;;;;;;;;;;;19.44;52.81;96514.47;5104709;28;20229;-71
2023/06/04 06:37:26;;;;;;;;;;;;;;;19.48;52.49;96516.31;5105531;28;19950;-70
2023/06/04 06:39:52;;;;;;;;;;;;;;;19.56;51.88;96516.84;5105377;28;20065;-71
2023/06/04 06:42:19;;;;;;;;;;;;;;;19.63;52.02;96515.47;5104977;28;19949;-70
2023/06/04 06:44:45;;;;;;;;;;;;;;;19.66;51.44;96517.56;5104855;28;19960;-70
2023/06/04 06:47:14;;;;;;;;;;;;;;;19.68;51.59;96506.66;5105339;28;19953;-71
2023/06/04 06:49:40;;;;;;;;;;;;;;;19.74;48.08;96502.94;5105132;28;19963;-70
2023/06/04 06:52:06;;;;;;;;;;;;;;;19.81;51.23;96515.94;5104982;28;19975;-69
2023/06/04 06:54:32;;;;;;;;;;;;;;;19.92;51.13;96520.13;5105249;28;19956;-81
2023/06/04 06:56:58;;;;;;;;;;;;;;;20.01;51.26;96515.81;5105159;28;19957;-80
2023/06/04 06:59:24;;;;;;;;;;;;;;;20.06;50.02;96522.97;5103637;28;19961;-81
2023/06/04 07:01:49;;;;;;;;;;;;;;;20.10;51.06;96524.00;5105250;28;19943;-84
2023/06/04 07:04:15;;;;;;;;;;;;;;;20.12;49.84;96523.75;5105220;28;19995;-81
2023/06/04 07:06:41;;;;;;;;;;;;;;;20.17;50.17;96529.03;5105179;28;19953;-80
2023/06/04 07:09:08;;;;;;;;;;;;;;;20.28;50.37;96533.19;5104951;28;20092;-80
2023/06/04 07:11:34;;;;;;;;;;;;;;;20.45;49.71;96528.28;5104512;28;19962;-71
2023/06/04 07:14:02;;;;;;;;;;;;;;;20.55;50.90;96535.38;5104300;28;20239;-71
2023/06/04 07:16:28;;;;;;;;;;;;;;;20.65;49.27;96527.31;5104788;28;19952;-73
2023/06/04 07:18:54;;;;;;;;;;;;;;;20.76;47.46;96528.03;5104671;28;19953;-72
2023/06/04 07:21:21;;;;;;;;;;;;;;;20.89;48.58;96526.56;5104681;28;19988;-71
2023/06/04 07:23:49;;;;;;;;;;;;;;;20.98;48.42;96526.75;5104705;28;19964;-71
2023/06/04 07:26:15;;;;;;;;;;;;;;;21.04;46.81;96521.09;5104786;28;19955;-72
2023/06/04 07:28:42;;;;;;;;;;;;;;;21.10;46.62;96524.47;5104739;28;19967;-71
2023/06/04 07:31:07;;;;;;;;;;;;;;;21.16;44.43;96512.69;5104677;28;19947;-72
2023/06/04 07:33:33;;;;;;;;;;;;;;;21.16;45.42;96520.69;5104742;28;20199;-71
2023/06/04 07:35:59;;;;;;;;;;;;;;;21.13;46.51;96531.94;5104229;28;19949;-71
2023/06/04 07:38:25;;;;;;;;;;;;;;;21.24;46.29;96529.94;5104240;28;19958;-71
2023/06/04 07:40:51;;;;;;;;;;;;;;;21.33;46.94;96528.22;5104444;28;19950;-71
2023/06/04 07:43:17;;;;;;;;;;;;;;;21.46;45.61;96521.44;5104371;28;19959;-71
2023/06/04 07:45:43;;;;;;;;;;;;;;;21.49;44.67;96518.19;5104310;28;19956;-81
2023/06/04 07:48:10;;;;;;;;;;;;;;;21.54;45.17;96514.66;5106212;28;20179;-70
2023/06/04 07:50:36;;;;;;;;;;;;;;;21.61;46.42;96512.47;5108603;28;19955;-74
2023/06/04 07:53:02;;;;;;;;;;;;;;;21.73;45.87;96504.81;5108388;28;19972;-74
2023/06/04 07:55:28;;;;;;;;;;;;;;;21.80;45.56;96502.59;5108512;28;19953;-74
2023/06/04 07:57:54;;;;;;;;;;;;;;;21.92;45.94;96501.34;5108381;28;19956;-74
2023/06/04 08:00:19;;;;;;;;;;;;;;;22.00;45.50;96506.81;5108743;28;19972;-74
2023/06/04 08:02:45;;;;;;;;;;;;;;;22.03;46.09;96503.59;5108286;28;19966;-74
2023/06/04 08:05:13;;;;;;;;;;;;;;;22.00;44.50;96508.72;5108345;28;19948;-72
2023/06/04 08:07:40;;;;;;;;;;;;;;;22.06;44.04;96494.19;5107860;28;20270;-69
2023/06/04 08:10:06;;;;;;;;;;;;;;;22.05;44.61;96505.97;5107987;28;19964;-69
2023/06/04 08:12:32;;;;;;;;;;;;;;;22.21;44.46;96509.19;5106575;28;20128;-69
2023/06/04 08:14:58;;;;;;;;;;;;;;;22.29;44.49;96504.00;5107867;28;19968;-68
2023/06/04 08:17:24;;;;;;;;;;;;;;;22.44;45.88;96508.31;5107819;28;19963;-69
2023/06/04 08:20:00;;;;;;;;;;;;;;;22.53;43.62;96500.41;5108055;28;19960;-69
2023/06/04 08:22:46;;;;;;;;;;;;;;;22.58;43.90;96503.00;5106464;28;19956;-69
2023/06/04 08:25:15;;;;;;;;;;;;;;;22.66;43.41;96506.91;5108145;28;20230;-71
2023/06/04 08:27:59;;;;;;;;;;;;;;;22.65;40.33;96507.97;5108095;28;20124;-72
2023/06/04 08:30:45;;;;;;;;;;;;;;;22.67;41.78;96513.81;5106771;28;20145;-71
2023/06/04 08:33:24;;;;;;;;;;;;;;;22.83;44.08;96509.00;5107498;28;19968;-72
2023/06/04 08:35:52;;;;;;;;;;;;;;;23.06;41.92;96509.94;5107767;28;20234;-72
2023/06/04 08:38:18;;;;;;;;;;;;;;;23.21;42.54;96512.31;5107643;28;19968;-72
2023/06/04 08:40:44;;;;;;;;;;;;;;;23.29;41.82;96511.63;5107556;28;19964;-70
2023/06/04 08:43:10;;;;;;;;;;;;;;;23.25;41.86;96509.84;5107036;28;19937;-68
2023/06/04 08:45:39;;;;;;;;;;;;;;;23.21;41.00;96509.66;5107503;28;19953;-71
2023/06/04 08:48:09;;;;;;;;;;;;;;;23.16;38.19;96509.75;5107077;28;19948;-71
2023/06/04 08:50:35;;;;;;;;;;;;;;;23.22;41.50;96513.09;5107075;28;20137;-71
2023/06/04 08:53:02;;;;;;;;;;;;;;;23.36;41.83;96513.13;5107043;28;20134;-71
2023/06/04 08:55:28;;;;;;;;;;;;;;;23.53;40.27;96515.97;5107058;28;19954;-72
2023/06/04 08:57:53;;;;;;;;;;;;;;;23.48;37.27;96518.75;5107026;28;19988;-71
2023/06/04 09:00:19;;;;;;;;;;;;;;;23.47;40.18;96514.47;5107084;28;20015;-71
2023/06/04 09:02:46;;;;;;;;;;;;;;;23.38;37.36;96516.28;5107171;28;20075;-72
2023/06/04 09:05:19;;;;;;;;;;;;;;;23.40;38.79;96524.81;5106588;28;19951;-71
2023/06/04 09:07:46;;;;;;;;;;;;;;;23.39;37.19;96524.03;5107030;28;19947;-72
2023/06/04 09:10:15;;;;;;;;;;;;;;;23.44;39.43;96528.47;5107052;28;20183;-72
2023/06/04 09:12:43;;;;;;;;;;;;;;;23.46;39.00;96524.41;5106447;28;19969;-72
2023/06/04 09:15:09;;;;;;;;;;;;;;;23.59;39.54;96536.19;5106617;28;19953;-72
2023/06/04 09:17:34;;;;;;;;;;;;;;;23.69;40.29;96541.34;5106528;28;20033;-73
2023/06/04 09:20:00;;;;;;;;;;;;;;;23.74;39.41;96537.75;5106760;28;19956;-70
2023/06/04 09:22:33;;;;;;;;;;;;;;;23.76;37.96;96543.63;5106678;28;19959;-70
2023/06/04 09:24:58;;;;;;;;;;;;;;;23.79;36.55;96543.03;5106532;28;20130;-70
2023/06/04 09:27:26;;;;;;;;;;;;;;;23.88;38.13;96543.13;5106753;28;19961;-71
2023/06/04 09:29:52;;;;;;;;;;;;;;;23.98;38.23;96536.72;5106599;28;19949;-70
2023/06/04 09:32:27;;;;;;;;;;;;;;;24.03;35.44;96536.63;5105643;28;20608;-69
2023/06/04 09:34:53;;;;;;;;;;;;;;;24.12;37.59;96550.88;5106781;28;20121;-70
2023/06/04 09:37:22;;;;;;;;;;;;;;;24.10;37.29;96545.03;5106038;28;19959;-70
2023/06/04 09:39:55;;;;;;;;;;;;;;;24.15;37.78;96541.44;5106395;28;19964;-69
2023/06/04 09:42:22;;;;;;;;;;;;;;;24.10;36.56;96539.69;5106045;28;19962;-69
2023/06/04 09:44:48;;;;;;;;;;;;;;;23.99;34.63;96544.47;5105984;28;19949;-69
2023/06/04 09:47:14;;;;;;;;;;;;;;;23.78;34.51;96541.44;5105909;28;20024;-69
2023/06/04 09:49:41;;;;;;;;;;;;;;;23.71;35.85;96547.19;5104998;28;19956;-69
2023/06/04 09:52:07;;;;;;;;;;;;;;;23.84;36.70;96540.25;5105923;28;19960;-69
2023/06/04 09:54:41;;;;;;;;;;;;;;;23.97;35.98;96541.31;5105720;28;19956;-72
2023/06/04 09:57:16;;;;;;;;;;;;;;;24.08;35.67;96547.22;5106146;28;19948;-72
2023/06/04 09:59:44;;;;;;;;;;;;;;;24.12;36.34;96537.47;5106169;28;19937;-72
2023/06/04 10:02:11;;;;;;;;;;;;;;;24.28;36.49;96538.72;5105588;28;20148;-72
2023/06/04 10:04:40;;;;;;;;;;;;;;;24.42;36.38;96541.34;5105546;28;19961;-72
2023/06/04 10:07:07;;;;;;;;;;;;;;;24.37;34.84;96530.75;5106018;28;20157;-71
2023/06/04 10:09:35;;;;;;;;;;;;;;;24.38;36.31;96534.19;5105399;28;20241;-72
2023/06/04 10:12:02;;;;;;;;;;;;;;;24.36;33.74;96534.53;5105239;28;19961;-71
2023/06/04 10:14:32;;;;;;;;;;;;;;;24.36;36.14;96533.72;5105195;28;19963;-81
2023/06/04 10:16:58;;;;;;;;;;;;;;;24.50;36.78;96535.28;5105848;28;20135;-69
2023/06/04 10:19:24;;;;;;;;;;;;;;;24.64;35.76;96529.84;5105760;28;19950;-70
2023/06/04 10:21:50;;;;;;;;;;;;;;;24.59;35.21;96529.16;5105677;28;20179;-69
2023/06/04 10:24:16;;;;;;;;;;;;;;;24.55;35.13;96514.78;5105549;28;19994;-69
2023/06/04 10:26:42;;;;;;;;;;;;;;;24.39;34.89;96525.88;5105576;28;19937;-69
2023/06/04 10:29:08;;;;;;;;;;;;;;;24.30;33.30;96525.03;5105517;28;20243;-69
2023/06/04 10:31:34;;;;;;;;;;;;;;;24.35;36.21;96532.16;5105587;28;19960;-74
2023/06/04 10:34:00;;;;;;;;;;;;;;;24.50;36.33;96526.44;5105094;28;19963;-71
2023/06/04 10:36:26;;;;;;;;;;;;;;;24.67;35.23;96520.38;5105361;28;19944;-71
2023/06/04 10:38:53;;;;;;;;;;;;;;;24.64;33.41;96527.16;5105421;28;20192;-71
2023/06/04 10:41:21;;;;;;;;;;;;;;;24.68;33.87;96522.78;5105156;28;19949;-71
2023/06/04 10:43:49;;;;;;;;;;;;;;;24.86;34.15;96520.16;5105375;28;19964;-71
2023/06/04 10:46:16;;;;;;;;;;;;;;;25.09;36.16;96526.28;5105272;28;19950;-71
2023/06/04 10:48:48;;;;;;;;;;;;;;;25.21;32.86;96518.47;5105127;28;19961;-71
2023/06/04 10:51:15;;;;;;;;;;;;;;;25.19;35.07;96520.63;5105172;28;19955;-71
2023/06/04 10:53:40;;;;;;;;;;;;;;;25.20;32.94;96516.91;5104846;28;19957;-71
2023/06/04 10:56:06;;;;;;;;;;;;;;;25.28;34.44;96518.81;5104708;28;20068;-71
2023/06/04 10:58:33;;;;;;;;;;;;;;;25.54;34.99;96517.31;5104677;28;19976;-72
2023/06/04 11:00:59;;;;;;;;;;;;;;;25.66;33.19;96520.16;5104592;28;19965;-71
2023/06/04 11:03:34;;;;;;;;;;;;;;;25.48;31.83;96514.75;5105210;28;19946;-72
2023/06/04 11:06:00;;;;;;;;;;;;;;;25.51;34.70;96524.06;5104784;28;20142;-71
2023/06/04 11:08:29;;;;;;;;;;;;;;;25.68;34.68;96529.50;5104805;28;19955;-71
2023/06/04 11:10:55;;;;;;;;;;;;;;;25.95;34.83;96524.19;5104858;28;19952;-67
2023/06/04 11:13:27;;;;;;;;;;;;;;;26.14;33.19;96519.28;5104740;28;19963;-67
2023/06/04 11:15:53;;;;;;;;;;;;;;;26.07;32.37;96522.44;5104938;28;19954;-68
2023/06/04 11:18:20;;;;;;;;;;;;;;;26.25;33.37;96517.88;5104821;28;20194;-68
2023/06/04 11:20:48;;;;;;;;;;;;;;;26.35;31.93;96519.41;5103266;28;19970;-67
2023/06/04 11:23:15;;;;;;;;;;;;;;;26.29;31.93;96518.00;5108495;28;19951;-67
2023/06/04 11:25:43;;;;;;;;;;;;;;;26.09;32.93;96524.81;5109261;28;19960;-67
2023/06/04 11:28:13;;;;;;;;;;;;;;;25.92;33.04;96521.00;5108732;28;19954;-74
2023/06/04 11:30:39;;;;;;;;;;;;;;;25.65;31.66;96521.28;5109140;28;19958;-67
2023/06/04 11:33:05;;;;;;;;;;;;;;;25.39;32.75;96526.56;5108569;28;19963;-67
2023/06/04 11:35:39;;;;;;;;;;;;;;;25.60;34.66;96524.91;5108653;28;19954;-67
2023/06/04 11:38:05;;;;;;;;;;;;;;;26.07;34.44;96513.59;5108895;28;20242;-67
2023/06/04 11:40:31;;;;;;;;;;;;;;;26.24;33.80;96523.53;5109045;28;19958;-67
2023/06/04 11:42:57;;;;;;;;;;;;;;;26.31;33.41;96510.41;5108628;28;19957;-68
2023/06/04 11:45:23;;;;;;;;;;;;;;;26.53;33.33;96504.06;5107804;28;20017;-72
2023/06/04 11:47:53;;;;;;;;;;;;;;;26.73;31.00;96518.75;5108733;28;20133;-73
2023/06/04 11:50:20;;;;;;;;;;;;;;;26.91;32.40;96506.81;5108214;28;19952;-74
2023/06/04 11:52:47;;;;;;;;;;;;;;;27.13;31.96;96507.69;5108117;28;19964;-74
2023/06/04 11:55:13;;;;;;;;;;;;;;;26.81;30.46;96512.56;5108391;28;19983;-73
2023/06/04 11:57:39;;;;;;;;;;;;;;;26.42;31.45;96513.59;5108193;28;20141;-74
2023/06/04 12:00:12;;;;;;;;;;;;;;;26.07;31.42;96517.06;5108243;28;19960;-73
2023/06/04 12:02:47;;;;;;;;;;;;;;;25.82;32.17;96505.16;5108369;28;19975;-74
2023/06/04 12:05:19;;;;;;;;;;;;;;;26.08;32.77;96505.22;5107869;28;20114;-83
2023/06/04 12:07:47;;;;;;;;;;;;;;;26.25;32.09;96506.31;5108268;28;20202;-68
2023/06/04 12:10:13;;;;;;;;;;;;;;;26.36;31.52;96498.72;5107768;28;19948;-67
2023/06/04 12:12:40;;;;;;;;;;;;;;;26.47;31.39;96498.06;5107709;28;20021;-67
2023/06/04 12:15:07;;;;;;;;;;;;;;;26.40;32.26;96494.28;5108395;28;19958;-67
2023/06/04 12:17:33;;;;;;;;;;;;;;;26.06;31.01;96496.69;5107696;28;19962;-67
2023/06/04 12:19:59;;;;;;;;;;;;;;;26.02;31.98;96505.69;5108099;28;19983;-67
2023/06/04 12:22:26;;;;;;;;;;;;;;;25.97;32.63;96500.47;5107773;28;19959;-67
2023/06/04 12:24:53;;;;;;;;;;;;;;;26.05;33.57;96497.78;5107533;28;20145;-69
2023/06/04 12:27:23;;;;;;;;;;;;;;;26.36;32.61;96496.81;5107824;28;19958;-69
2023/06/04 12:29:55;;;;;;;;;;;;;;;26.23;29.04;96495.88;5107786;28;19948;-69
2023/06/04 12:32:21;;;;;;;;;;;;;;;25.92;29.66;96493.34;5107852;28;20271;-69
2023/06/04 12:34:48;;;;;;;;;;;;;;;25.89;30.42;96499.34;5107022;28;19998;-69
2023/06/04 12:37:14;;;;;;;;;;;;;;;25.94;29.69;96483.09;5107744;28;19960;-70
2023/06/04 12:39:39;;;;;;;;;;;;;;;26.10;31.51;96492.25;5107667;28;19985;-70
2023/06/04 12:42:06;;;;;;;;;;;;;;;26.05;31.57;96491.63;5107739;28;19955;-71
2023/06/04 12:44:32;;;;;;;;;;;;;;;25.97;32.23;96490.50;5107406;28;20159;-69
2023/06/04 12:46:58;;;;;;;;;;;;;;;26.20;32.00;96480.38;5107786;28;19956;-69